Time;durP1;ratioP1;P1;durP2;ratioP2;P2;SDS_P1;SDS_P2;PMS_P1;PMS_P2;Temp;Humidity;BMP_temperature;BMP_pressure;BME280_temperature;BME280_humidity;BME280_pressure;Samples;Min_cycle;Max_cycle;Signal;HPM_P1;HPM_P2
2022/05/05 00:01:52;;;;;;;10.13;5.57;;;17.30;79.10;;;;;;5060521;28;20056;-61
2022/05/05 00:04:22;;;;;;;15.25;5.15;;;17.20;79.20;;;;;;5065105;28;20069;-62
2022/05/05 00:06:48;;;;;;;8.85;5.10;;;17.20;79.30;;;;;;5087443;28;20046;-62
2022/05/05 00:09:13;;;;;;;11.07;5.15;;;17.20;79.30;;;;;;5087626;28;20103;-61
2022/05/05 00:14:31;;;;;;;11.18;5.40;;;17.10;79.40;;;;;;5066617;28;20043;-62
2022/05/05 00:16:58;;;;;;;14.80;5.43;;;17.10;79.50;;;;;;5063334;28;20035;-61
2022/05/05 00:19:25;;;;;;;19.73;5.75;;;17.20;79.60;;;;;;5063130;28;20043;-62
2022/05/05 00:21:50;;;;;;;7.47;5.45;;;17.20;79.60;;;;;;5065200;28;20582;-61
2022/05/05 00:24:16;;;;;;;19.25;6.07;;;17.10;79.60;;;;;;5085660;28;20083;-61
2022/05/05 00:26:42;;;;;;;11.98;5.57;;;17.10;79.70;;;;;;5065174;28;20109;-62
2022/05/05 00:29:08;;;;;;;11.77;5.38;;;17.10;79.90;;;;;;5066497;28;20032;-61
2022/05/05 00:31:33;;;;;;;14.13;6.68;;;17.10;79.80;;;;;;5084379;28;20070;-62
2022/05/05 00:33:59;;;;;;;15.45;5.18;;;17.10;80.00;;;;;;5058814;28;20505;-61
2022/05/05 00:36:24;;;;;;;16.73;5.15;;;17.10;80.10;;;;;;5043205;28;20029;-62
2022/05/05 00:38:50;;;;;;;8.93;5.47;;;17.10;80.20;;;;;;5061225;28;20510;-61
2022/05/05 00:41:15;;;;;;;13.23;5.32;;;17.10;80.10;;;;;;5049197;28;20035;-61
2022/05/05 00:43:41;;;;;;;9.68;4.93;;;17.10;80.40;;;;;;5060143;28;20064;-62
2022/05/05 00:46:06;;;;;;;14.32;5.43;;;17.10;80.40;;;;;;5057558;28;20041;-61
2022/05/05 00:48:32;;;;;;;17.73;5.05;;;17.10;80.40;;;;;;5036811;28;20422;-61
2022/05/05 00:50:57;;;;;;;10.75;4.88;;;17.10;80.40;;;;;;5063500;28;20032;-62
2022/05/05 00:53:23;;;;;;;14.73;5.68;;;17.10;80.40;;;;;;5062258;28;20032;-62
2022/05/05 00:56:02;;;;;;;11.73;5.53;;;17.10;80.40;;;;;;5057115;28;20040;-62
2022/05/05 00:58:28;;;;;;;8.10;5.13;;;17.10;80.40;;;;;;5030606;28;20023;-60
2022/05/05 01:00:54;;;;;;;10.93;5.20;;;17.10;80.40;;;;;;5059644;28;20487;-61
2022/05/05 01:03:20;;;;;;;10.10;4.70;;;17.10;80.40;;;;;;5051386;28;20056;-62
2022/05/05 01:05:45;;;;;;;11.88;5.15;;;17.10;80.70;;;;;;5085697;28;20020;-61
2022/05/05 01:08:11;;;;;;;10.18;5.10;;;17.10;80.60;;;;;;5061855;28;20539;-62
2022/05/05 01:10:36;;;;;;;11.38;4.63;;;17.00;80.60;;;;;;5086235;28;20139;-61
2022/05/05 01:13:02;;;;;;;10.38;5.10;;;17.00;80.60;;;;;;5048887;28;20020;-61
2022/05/05 01:15:32;;;;;;;10.57;4.65;;;17.00;80.70;;;;;;5067207;28;20112;-61
2022/05/05 01:17:57;;;;;;;7.07;4.93;;;17.00;80.80;;;;;;5049884;28;20088;-61
2022/05/05 01:20:23;;;;;;;7.68;4.90;;;17.00;80.80;;;;;;5030946;28;20024;-61
2022/05/05 01:22:51;;;;;;;7.35;4.60;;;17.00;80.80;;;;;;5062241;28;20032;-62
2022/05/05 01:28:14;;;;;;;6.07;4.40;;;17.00;80.70;;;;;;5063999;28;20027;-61
2022/05/05 01:30:44;;;;;;;6.68;4.60;;;17.00;80.70;;;;;;5081529;28;21274;-61
2022/05/05 01:33:27;;;;;;;12.48;4.88;;;17.00;81.00;;;;;;5077336;28;20028;-61
2022/05/05 01:35:54;;;;;;;10.15;4.55;;;17.00;80.90;;;;;;5058511;28;20054;-61
2022/05/05 01:38:21;;;;;;;7.63;4.25;;;17.00;80.90;;;;;;5084772;28;20046;-62
2022/05/05 01:40:47;;;;;;;7.07;5.07;;;16.90;80.90;;;;;;5062191;28;20052;-62
2022/05/05 01:43:13;;;;;;;5.65;4.55;;;17.00;81.00;;;;;;5063719;28;20653;-61
2022/05/05 01:45:38;;;;;;;7.05;4.50;;;17.00;81.00;;;;;;5085513;28;20051;-62
2022/05/05 01:48:04;;;;;;;8.55;4.40;;;16.90;81.20;;;;;;5062134;28;20028;-61
2022/05/05 01:50:33;;;;;;;6.28;4.65;;;16.90;81.30;;;;;;5083509;28;20083;-61
2022/05/05 01:52:59;;;;;;;7.00;4.30;;;16.90;81.30;;;;;;5058148;28;20051;-61
2022/05/05 01:55:25;;;;;;;7.72;4.60;;;16.90;81.30;;;;;;5050749;28;20074;-62
2022/05/05 01:57:51;;;;;;;8.05;4.90;;;16.90;81.40;;;;;;5032852;28;20074;-61
2022/05/05 02:00:17;;;;;;;6.32;4.22;;;16.90;81.20;;;;;;5079426;28;20076;-61
2022/05/05 02:02:43;;;;;;;6.97;4.35;;;16.90;81.30;;;;;;5060755;28;20059;-62
2022/05/05 02:05:09;;;;;;;5.30;4.10;;;16.90;81.40;;;;;;5060149;28;20083;-62
2022/05/05 02:07:35;;;;;;;7.40;4.85;;;16.80;81.40;;;;;;5039349;28;20028;-61
2022/05/05 02:10:04;;;;;;;7.90;4.93;;;16.80;81.40;;;;;;5062799;28;20089;-61
2022/05/05 02:12:33;;;;;;;5.28;4.32;;;16.80;81.40;;;;;;5083524;28;20279;-61
2022/05/05 02:14:58;;;;;;;9.75;3.97;;;16.80;81.40;;;;;;5046880;28;20036;-62
2022/05/05 02:17:24;;;;;;;5.35;4.20;;;16.80;81.40;;;;;;5060365;28;20045;-62
2022/05/05 02:19:49;;;;;;;8.15;4.72;;;16.80;81.40;;;;;;5081086;28;20471;-61
2022/05/05 02:22:15;;;;;;;12.70;4.47;;;16.80;81.40;;;;;;5083324;28;20024;-61
2022/05/05 02:24:41;;;;;;;7.90;4.13;;;16.80;81.50;;;;;;5083246;28;20066;-61
2022/05/05 02:27:07;;;;;;;6.65;4.50;;;16.70;81.50;;;;;;5055572;28;20175;-61
2022/05/05 02:29:34;;;;;;;6.57;3.78;;;16.80;81.50;;;;;;5083271;28;20034;-61
2022/05/05 02:31:59;;;;;;;9.85;3.38;;;16.60;81.40;;;;;;5063625;28;20035;-60
2022/05/05 02:34:25;;;;;;;4.55;3.53;;;16.80;81.60;;;;;;5083769;28;20040;-62
2022/05/05 02:39:34;;;;;;;7.82;3.58;;;16.70;81.60;;;;;;5082193;28;20062;-61
2022/05/05 02:42:00;;;;;;;5.20;3.85;;;16.70;81.50;;;;;;5054156;28;20068;-61
2022/05/05 02:44:26;;;;;;;6.75;3.85;;;16.70;82.30;;;;;;5081913;28;20739;-63
2022/05/05 02:46:51;;;;;;;7.40;3.60;;;16.70;81.70;;;;;;5083589;28;20365;-61
2022/05/05 02:49:17;;;;;;;4.85;3.65;;;16.70;81.60;;;;;;5082037;28;20074;-65
2022/05/05 02:51:43;;;;;;;4.57;3.28;;;16.70;81.60;;;;;;5056866;28;20058;-62
2022/05/05 02:56:53;;;;;;;6.32;3.67;;;16.70;81.60;;;;;;5082719;28;20102;-62
2022/05/05 02:59:18;;;;;;;5.03;3.38;;;16.70;81.70;;;;;;5083072;28;20032;-61
2022/05/05 03:01:44;;;;;;;3.67;3.28;;;16.60;81.70;;;;;;5081655;28;20057;-60
2022/05/05 03:04:09;;;;;;;6.03;3.42;;;16.60;81.80;;;;;;5063013;28;20032;-61
2022/05/05 03:06:35;;;;;;;3.67;3.00;;;16.60;81.80;;;;;;5075478;28;20492;-62
2022/05/05 03:09:00;;;;;;;7.13;3.17;;;16.60;82.00;;;;;;5062694;28;20027;-62
2022/05/05 03:11:26;;;;;;;5.47;3.30;;;16.50;82.00;;;;;;5082390;28;20416;-61
2022/05/05 03:13:51;;;;;;;4.10;3.22;;;16.50;82.10;;;;;;5082686;28;20039;-61
2022/05/05 03:16:17;;;;;;;4.93;3.10;;;16.50;82.10;;;;;;5080006;28;20059;-62
2022/05/05 03:18:42;;;;;;;4.28;3.10;;;16.50;82.20;;;;;;5083271;28;20063;-62
2022/05/05 03:21:08;;;;;;;3.25;2.92;;;16.50;82.20;;;;;;5030285;28;20676;-61
2022/05/05 03:23:33;;;;;;;6.05;3.03;;;16.40;82.10;;;;;;5059427;28;20060;-61
2022/05/05 03:25:59;;;;;;;5.63;3.47;;;16.50;82.20;;;;;;5041538;28;20069;-60
2022/05/05 03:28:25;;;;;;;8.10;3.42;;;16.50;82.20;;;;;;5084402;28;20085;-62
2022/05/05 03:30:50;;;;;;;5.30;3.42;;;16.50;82.10;;;;;;5083545;28;20159;-61
2022/05/05 03:33:16;;;;;;;8.93;3.50;;;16.40;82.00;;;;;;5084383;28;20044;-61
2022/05/05 03:35:41;;;;;;;4.05;3.50;;;16.50;82.10;;;;;;5032450;28;20047;-60
2022/05/05 03:38:07;;;;;;;6.75;3.20;;;16.40;82.10;;;;;;5084052;28;20031;-61
2022/05/05 03:40:33;;;;;;;5.65;3.35;;;16.40;82.00;;;;;;5083335;28;20074;-61
2022/05/05 03:42:59;;;;;;;8.45;3.80;;;16.40;82.00;;;;;;5081302;28;20039;-62
2022/05/05 03:45:25;;;;;;;6.88;3.63;;;16.40;82.00;;;;;;5040558;28;20016;-61
2022/05/05 03:47:50;;;;;;;4.70;3.30;;;16.40;81.90;;;;;;5061016;28;20039;-62
2022/05/05 03:50:16;;;;;;;4.25;3.70;;;16.40;82.00;;;;;;5083656;28;20118;-62
2022/05/05 03:52:41;;;;;;;5.07;3.20;;;16.40;82.10;;;;;;5084050;28;20042;-61
2022/05/05 03:55:07;;;;;;;8.20;3.72;;;16.40;82.10;;;;;;5058113;28;20032;-62
2022/05/05 03:57:36;;;;;;;5.57;3.17;;;16.40;82.10;;;;;;5083286;28;20044;-61
2022/05/05 04:00:03;;;;;;;7.88;3.70;;;16.40;82.10;;;;;;5083889;28;20052;-62
2022/05/05 04:02:29;;;;;;;3.97;3.08;;;16.40;82.10;;;;;;5083892;28;20378;-61
2022/05/05 04:04:55;;;;;;;6.40;3.50;;;16.40;82.10;;;;;;5056985;28;20067;-61
2022/05/05 04:07:20;;;;;;;7.00;3.00;;;16.40;82.20;;;;;;5082580;28;20069;-61
2022/05/05 04:09:46;;;;;;;5.22;3.15;;;16.40;82.30;;;;;;5081814;28;20036;-62
2022/05/05 04:12:12;;;;;;;5.75;2.97;;;16.30;82.20;;;;;;5082062;28;20059;-61
2022/05/05 04:14:37;;;;;;;6.88;2.97;;;16.30;82.20;;;;;;5059468;28;20071;-61
2022/05/05 04:17:03;;;;;;;3.58;3.13;;;16.30;82.20;;;;;;5081663;28;20440;-61
2022/05/05 04:19:29;;;;;;;4.50;2.72;;;16.30;82.40;;;;;;5057167;28;20075;-62
2022/05/05 04:21:54;;;;;;;3.95;3.00;;;16.30;82.30;;;;;;5081651;28;20024;-62
2022/05/05 04:24:20;;;;;;;9.45;3.15;;;16.30;82.40;;;;;;5079913;28;20020;-60
2022/05/05 04:26:45;;;;;;;3.78;2.85;;;16.30;82.40;;;;;;5082264;28;20867;-61
2022/05/05 04:29:11;;;;;;;4.90;2.92;;;16.30;82.50;;;;;;5062718;28;20024;-62
2022/05/05 04:31:37;;;;;;;5.07;3.20;;;16.30;83.20;;;;;;5077168;28;20467;-62
2022/05/05 04:34:03;;;;;;;3.40;3.10;;;16.30;82.70;;;;;;5086027;28;20047;-62
2022/05/05 04:36:34;;;;;;;4.68;2.83;;;16.30;82.70;;;;;;5062718;28;20479;-62
2022/05/05 04:39:03;;;;;;;6.10;3.17;;;16.20;82.70;;;;;;5068257;28;20773;-61
2022/05/05 04:41:28;;;;;;;4.05;2.70;;;16.20;82.70;;;;;;5080996;28;20051;-61
2022/05/05 04:43:54;;;;;;;16.60;3.88;;;16.20;82.60;;;;;;5062606;28;20103;-62
2022/05/05 04:46:20;;;;;;;27.23;5.78;;;16.20;82.70;;;;;;5060869;28;20077;-62
2022/05/05 04:48:45;;;;;;;23.08;6.03;;;16.20;83.40;;;;;;5050380;28;20536;-61
2022/05/05 04:51:11;;;;;;;19.70;5.40;;;16.20;82.80;;;;;;5085217;28;20032;-61
2022/05/05 04:53:36;;;;;;;25.70;4.80;;;16.20;82.90;;;;;;5061631;28;20705;-62
2022/05/05 04:56:02;;;;;;;26.30;5.38;;;16.20;82.80;;;;;;5085844;28;20190;-61
2022/05/05 04:58:27;;;;;;;21.73;5.90;;;16.20;83.00;;;;;;5050875;28;20225;-62
2022/05/05 05:00:53;;;;;;;20.45;5.85;;;16.10;83.10;;;;;;5081625;28;20031;-61
2022/05/05 05:03:39;;;;;;;15.07;5.25;;;16.20;83.30;;;;;;5059423;28;20553;-62
2022/05/05 05:06:05;;;;;;;21.15;4.90;;;16.10;83.20;;;;;;5084431;28;20467;-61
2022/05/05 05:08:31;;;;;;;22.23;5.13;;;16.20;83.10;;;;;;5081885;28;20461;-61
2022/05/05 05:10:57;;;;;;;15.88;4.57;;;16.10;82.90;;;;;;5082095;28;20028;-62
2022/05/05 05:13:23;;;;;;;24.63;5.53;;;16.10;82.90;;;;;;5033183;28;20129;-61
2022/05/05 05:15:48;;;;;;;24.25;5.47;;;16.10;82.80;;;;;;5056445;28;20123;-61
2022/05/05 05:18:14;;;;;;;23.05;5.25;;;16.20;82.70;;;;;;5080327;28;20376;-62
2022/05/05 05:20:39;;;;;;;23.23;5.35;;;16.20;82.60;;;;;;5060103;28;20537;-61
2022/05/05 05:23:05;;;;;;;22.73;5.30;;;16.20;82.60;;;;;;5083160;28;20543;-61
2022/05/05 05:25:30;;;;;;;15.80;4.75;;;16.00;82.40;;;;;;5084118;28;20024;-62
2022/05/05 05:27:57;;;;;;;23.55;4.88;;;16.20;82.50;;;;;;5079735;28;20036;-62
2022/05/05 05:30:23;;;;;;;17.98;4.32;;;16.20;82.60;;;;;;5080364;28;20027;-61
2022/05/05 05:32:48;;;;;;;17.60;5.38;;;16.20;82.60;;;;;;5059314;28;20085;-62
2022/05/05 05:35:14;;;;;;;20.75;4.40;;;16.20;82.70;;;;;;5041056;28;20051;-61
2022/05/05 05:37:39;;;;;;;16.35;4.72;;;16.30;82.80;;;;;;5079808;28;20043;-61
2022/05/05 05:40:06;;;;;;;12.80;4.60;;;16.30;82.90;;;;;;5081124;28;20064;-61
2022/05/05 05:42:31;;;;;;;12.15;4.13;;;16.30;83.30;;;;;;5062395;28;20383;-61
2022/05/05 05:44:57;;;;;;;11.40;4.28;;;16.30;83.40;;;;;;5082814;28;20050;-61
2022/05/05 05:47:23;;;;;;;17.20;4.65;;;16.30;83.40;;;;;;5082153;28;20027;-61
2022/05/05 05:49:48;;;;;;;23.17;4.97;;;16.30;83.20;;;;;;5080936;28;20479;-63
2022/05/05 05:52:14;;;;;;;12.88;4.50;;;16.20;83.00;;;;;;5080474;28;20020;-62
2022/05/05 05:54:39;;;;;;;16.60;4.82;;;16.30;83.00;;;;;;5059432;28;20445;-61
2022/05/05 05:57:05;;;;;;;16.13;4.72;;;16.30;83.00;;;;;;5080813;28;20476;-62
2022/05/05 05:59:30;;;;;;;20.00;5.32;;;16.30;83.10;;;;;;5082764;28;20036;-61
2022/05/05 06:04:40;;;;;;;15.50;4.03;;;16.30;83.60;;;;;;5082930;28;20063;-62
2022/05/05 06:07:05;;;;;;;21.42;4.63;;;16.30;83.90;;;;;;5078380;28;20060;-62
2022/05/05 06:09:31;;;;;;;17.90;4.35;;;16.30;84.10;;;;;;5064522;28;20047;-61
2022/05/05 06:11:56;;;;;;;14.70;4.50;;;16.30;84.00;;;;;;5073227;28;20108;-61
2022/05/05 06:14:22;;;;;;;15.10;4.43;;;16.20;84.20;;;;;;5082854;28;20110;-62
2022/05/05 06:16:47;;;;;;;16.17;4.43;;;16.20;84.20;;;;;;5060361;28;20483;-61
2022/05/05 06:19:13;;;;;;;13.55;4.03;;;16.20;84.20;;;;;;5079519;28;20500;-61
2022/05/05 06:21:39;;;;;;;12.25;3.95;;;16.20;84.40;;;;;;5036670;28;20414;-62
2022/05/05 06:24:04;;;;;;;7.60;3.40;;;16.20;84.40;;;;;;5072263;28;20054;-61
2022/05/05 06:26:30;;;;;;;13.13;4.38;;;16.20;84.30;;;;;;5042426;28;20372;-62
2022/05/05 06:28:56;;;;;;;13.93;4.35;;;16.30;84.10;;;;;;5042808;28;20065;-62
2022/05/05 06:31:21;;;;;;;7.35;3.70;;;16.30;84.50;;;;;;5040441;28;20024;-60
2022/05/05 06:33:49;;;;;;;13.80;4.18;;;16.20;85.00;;;;;;5080475;28;20032;-62
2022/05/05 06:36:15;;;;;;;12.88;3.97;;;16.20;85.30;;;;;;5058536;28;20038;-60
2022/05/05 06:38:41;;;;;;;7.03;3.60;;;16.20;85.20;;;;;;5034395;28;20128;-62
2022/05/05 06:41:08;;;;;;;6.38;3.47;;;16.20;85.00;;;;;;5055472;28;20110;-61
2022/05/05 06:43:34;;;;;;;8.82;3.40;;;16.20;85.20;;;;;;5056207;28;20016;-61
2022/05/05 06:45:59;;;;;;;10.98;3.45;;;16.20;85.70;;;;;;5081811;28;20574;-62
2022/05/05 06:48:25;;;;;;;8.45;4.10;;;16.20;85.70;;;;;;5074836;28;20051;-61
2022/05/05 06:50:50;;;;;;;9.55;3.83;;;16.20;86.00;;;;;;5070214;28;20068;-61
2022/05/05 06:53:16;;;;;;;13.48;4.60;;;16.20;86.10;;;;;;5043043;28;20103;-62
2022/05/05 06:55:41;;;;;;;9.05;4.35;;;16.20;86.10;;;;;;5072570;28;20043;-62
2022/05/05 06:58:08;;;;;;;14.95;4.53;;;16.20;86.30;;;;;;5057732;28;20089;-61
2022/05/05 07:03:17;;;;;;;12.27;4.43;;;16.20;87.10;;;;;;5075329;28;20119;-61
2022/05/05 07:05:43;;;;;;;9.40;3.92;;;16.20;86.40;;;;;;5057944;28;20415;-62
2022/05/05 07:08:08;;;;;;;16.95;4.43;;;16.20;86.50;;;;;;5076490;28;20040;-62
2022/05/05 07:10:52;;;;;;;20.52;5.20;;;16.20;86.10;;;;;;5072203;28;20040;-60
2022/05/05 07:13:18;;;;;;;18.63;5.20;;;16.30;86.20;;;;;;5068838;28;20063;-61
2022/05/05 07:15:44;;;;;;;17.42;5.28;;;16.30;86.90;;;;;;5052469;28;20106;-60
2022/05/05 07:18:09;;;;;;;18.77;5.15;;;16.30;87.20;;;;;;5056371;28;20127;-62
2022/05/05 07:20:35;;;;;;;21.02;5.38;;;16.30;87.60;;;;;;5056004;28;20353;-62
2022/05/05 07:23:00;;;;;;;27.58;6.55;;;16.30;87.70;;;;;;5072244;28;20472;-61
2022/05/05 07:25:26;;;;;;;18.20;5.60;;;16.30;87.70;;;;;;5052480;28;20037;-62
2022/05/05 07:27:51;;;;;;;17.55;6.30;;;16.30;88.30;;;;;;5070317;28;20040;-61
2022/05/05 07:30:17;;;;;;;23.27;5.88;;;16.30;88.30;;;;;;5048919;28;20047;-61
2022/05/05 07:32:42;;;;;;;17.70;6.28;;;16.30;88.30;;;;;;5053061;28;20091;-62
2022/05/05 07:35:09;;;;;;;22.55;6.32;;;16.30;88.30;;;;;;5055722;28;20039;-62
2022/05/05 07:37:36;;;;;;;15.00;6.03;;;16.30;88.40;;;;;;5055057;28;20086;-61
2022/05/05 07:40:02;;;;;;;16.20;7.00;;;16.30;88.20;;;;;;5051104;28;20409;-62
2022/05/05 07:42:28;;;;;;;16.65;7.28;;;16.30;88.30;;;;;;5056491;28;20493;-61
2022/05/05 07:44:53;;;;;;;18.83;6.25;;;16.30;88.50;;;;;;5056012;28;20107;-63
2022/05/05 07:47:19;;;;;;;27.33;6.50;;;16.40;88.40;;;;;;5051774;28;20067;-62
2022/05/05 07:49:44;;;;;;;28.38;7.22;;;16.30;88.10;;;;;;5050278;28;20178;-62
2022/05/05 07:52:10;;;;;;;16.58;6.20;;;16.40;88.50;;;;;;5050395;28;20116;-61
2022/05/05 07:54:37;;;;;;;19.60;5.93;;;16.40;88.40;;;;;;5043902;28;20108;-62
2022/05/05 07:57:03;;;;;;;17.70;6.20;;;16.40;88.10;;;;;;5050543;28;20862;-61
2022/05/05 07:59:29;;;;;;;27.60;8.32;;;16.40;87.90;;;;;;5036720;28;20043;-62
2022/05/05 08:01:55;;;;;;;71.50;12.32;;;16.40;88.10;;;;;;5069973;28;20056;-61
2022/05/05 08:04:20;;;;;;;31.00;9.52;;;16.40;88.40;;;;;;5043286;28;20040;-62
2022/05/05 08:06:46;;;;;;;29.20;8.57;;;16.40;88.60;;;;;;5060691;28;20107;-63
2022/05/05 08:09:11;;;;;;;25.08;6.90;;;16.40;88.20;;;;;;5062617;28;20431;-62
2022/05/05 08:11:37;;;;;;;25.08;6.32;;;16.40;88.10;;;;;;5072079;28;20099;-61
2022/05/05 08:14:04;;;;;;;14.55;6.30;;;16.40;88.00;;;;;;5046009;28;20066;-63
2022/05/05 08:16:30;;;;;;;23.05;6.47;;;16.50;87.60;;;;;;5079025;28;20108;-62
2022/05/05 08:18:55;;;;;;;18.45;7.28;;;16.50;88.60;;;;;;5077851;28;20031;-62
2022/05/05 08:21:21;;;;;;;24.63;6.85;;;16.60;88.20;;;;;;5046317;28;20028;-62
2022/05/05 08:23:46;;;;;;;21.40;6.93;;;16.50;88.10;;;;;;5059583;28;20039;-62
2022/05/05 08:28:55;;;;;;;27.58;6.78;;;16.50;87.50;;;;;;5064102;28;20089;-60
2022/05/05 08:31:21;;;;;;;18.67;6.55;;;16.50;87.90;;;;;;5047129;28;20032;-61
2022/05/05 08:33:47;;;;;;;25.98;7.28;;;16.50;88.10;;;;;;5035331;28;20034;-61
2022/05/05 08:36:13;;;;;;;29.80;7.32;;;16.50;88.40;;;;;;5084297;28;20601;-60
2022/05/05 08:38:38;;;;;;;26.90;7.47;;;16.50;88.30;;;;;;5042875;28;20129;-61
2022/05/05 08:41:04;;;;;;;18.98;6.95;;;16.50;88.00;;;;;;5061027;28;20070;-60
2022/05/05 08:43:30;;;;;;;22.45;7.57;;;16.50;88.20;;;;;;5054502;28;20106;-61
2022/05/05 08:45:57;;;;;;;31.33;7.70;;;16.60;88.10;;;;;;5050647;28;20340;-62
2022/05/05 08:48:23;;;;;;;22.02;6.97;;;16.60;88.10;;;;;;5059939;28;20644;-62
2022/05/05 08:50:56;;;;;;;25.65;7.43;;;16.60;87.90;;;;;;5080709;28;20372;-60
2022/05/05 08:53:22;;;;;;;23.88;7.32;;;16.60;87.90;;;;;;5063702;28;20468;-61
2022/05/05 08:55:48;;;;;;;27.00;8.50;;;16.60;88.20;;;;;;5046635;28;20549;-60
2022/05/05 08:58:13;;;;;;;24.15;7.38;;;16.60;88.10;;;;;;5056006;28;20123;-61
2022/05/05 09:00:39;;;;;;;26.40;7.80;;;16.70;88.60;;;;;;5055163;28;20046;-60
2022/05/05 09:03:08;;;;;;;28.52;6.53;;;16.70;88.80;;;;;;5078934;28;20425;-60
2022/05/05 09:05:43;;;;;;;16.73;6.90;;;16.70;88.60;;;;;;5059789;28;20055;-61
2022/05/05 09:08:28;;;;;;;18.67;7.07;;;16.70;88.60;;;;;;5059154;28;20488;-63
2022/05/05 09:10:55;;;;;;;20.43;6.27;;;16.70;89.10;;;;;;5042544;28;20032;-61
2022/05/05 09:13:22;;;;;;;44.50;7.40;;;16.70;88.10;;;;;;5060484;28;20254;-61
2022/05/05 09:15:47;;;;;;;24.33;6.43;;;16.80;88.30;;;;;;5054339;28;20016;-62
2022/05/05 09:18:17;;;;;;;25.80;7.38;;;16.80;88.40;;;;;;5056543;28;20676;-62
2022/05/05 09:20:44;;;;;;;20.65;6.10;;;16.80;88.80;;;;;;5071753;28;20106;-62
2022/05/05 09:23:12;;;;;;;54.88;9.80;;;16.80;88.40;;;;;;5057821;28;20122;-60
2022/05/05 09:25:47;;;;;;;23.98;6.65;;;16.80;88.10;;;;;;5057514;28;20039;-63
2022/05/05 09:28:20;;;;;;;32.90;6.32;;;16.80;88.30;;;;;;5057513;28;20433;-62
2022/05/05 09:30:51;;;;;;;16.33;5.72;;;16.90;88.20;;;;;;5073071;28;20031;-60
2022/05/05 09:33:35;;;;;;;30.52;7.07;;;16.90;88.30;;;;;;5057288;28;20157;-62
2022/05/05 09:36:12;;;;;;;26.00;6.50;;;16.90;88.10;;;;;;5058389;28;20032;-62
2022/05/05 09:38:48;;;;;;;22.88;6.15;;;16.90;88.20;;;;;;5047555;28;20758;-62
2022/05/05 09:41:13;;;;;;;30.88;5.82;;;16.90;88.20;;;;;;5056325;28;20036;-62
2022/05/05 09:43:39;;;;;;;20.30;6.13;;;17.00;88.10;;;;;;5077110;28;20027;-62
2022/05/05 09:46:22;;;;;;;26.23;6.25;;;17.00;88.10;;;;;;5071927;28;20111;-62
2022/05/05 09:49:07;;;;;;;17.52;5.47;;;17.00;88.00;;;;;;5054974;28;20077;-61
2022/05/05 09:51:42;;;;;;;18.17;5.47;;;17.00;87.80;;;;;;5042344;28;20440;-62
2022/05/05 10:00:10;;;;;;;18.65;5.85;;;17.00;87.90;;;;;;4978827;28;20030;-62
2022/05/05 10:05:19;;;;;;;24.98;6.05;;;17.00;87.60;;;;;;5059266;28;20047;-61
2022/05/05 10:07:46;;;;;;;21.27;6.45;;;17.00;87.90;;;;;;5039364;28;20067;-62
2022/05/05 10:10:16;;;;;;;18.83;5.53;;;17.00;87.70;;;;;;5040352;28;20046;-62
2022/05/05 10:12:41;;;;;;;32.58;6.93;;;17.00;87.80;;;;;;5043291;28;20112;-60
2022/05/05 10:15:08;;;;;;;17.85;6.50;;;17.10;88.70;;;;;;5076490;28;20025;-60
2022/05/05 10:17:35;;;;;;;15.68;5.97;;;17.00;87.80;;;;;;5052340;28;20039;-61
2022/05/05 10:20:02;;;;;;;14.43;5.60;;;17.10;87.80;;;;;;5045020;28;20185;-63
2022/05/05 10:22:35;;;;;;;23.90;5.82;;;17.10;87.60;;;;;;5079959;28;20515;-62
2022/05/05 10:25:13;;;;;;;42.10;7.68;;;17.10;87.50;;;;;;5031888;28;20055;-62
2022/05/05 10:27:45;;;;;;;40.17;6.95;;;17.10;88.20;;;;;;5057581;28;20190;-62
2022/05/05 10:30:30;;;;;;;43.40;9.57;;;17.20;88.20;;;;;;5046570;28;20102;-62
2022/05/05 10:32:57;;;;;;;61.87;9.80;;;17.20;88.30;;;;;;5057123;28;20035;-62
2022/05/05 10:35:23;;;;;;;44.58;7.88;;;17.10;88.60;;;;;;5059438;28;20442;-62
2022/05/05 10:37:48;;;;;;;65.70;10.98;;;17.20;88.70;;;;;;5052846;28;20032;-62
2022/05/05 10:40:14;;;;;;;56.25;9.70;;;17.20;89.50;;;;;;5075138;28;20511;-62
2022/05/05 10:42:44;;;;;;;50.10;8.93;;;17.20;89.00;;;;;;5044204;28;20463;-62
2022/05/05 10:45:13;;;;;;;58.55;10.27;;;17.20;89.00;;;;;;5049664;28;20601;-60
2022/05/05 10:48:06;;;;;;;40.92;9.43;;;17.20;88.90;;;;;;5076993;28;20030;-62
2022/05/05 10:50:38;;;;;;;53.40;10.38;;;17.20;89.00;;;;;;5059618;28;20039;-62
2022/05/05 10:53:05;;;;;;;54.97;10.05;;;17.30;89.50;;;;;;5077501;28;20023;-61
2022/05/05 10:55:45;;;;;;;59.83;9.90;;;17.20;89.80;;;;;;5058889;28;20039;-60
2022/05/05 10:58:11;;;;;;;53.00;9.43;;;17.20;89.30;;;;;;5037604;28;20025;-63
2022/05/05 11:00:41;;;;;;;46.88;8.57;;;17.30;88.90;;;;;;5059278;28;20023;-61
2022/05/05 11:03:09;;;;;;;37.85;7.85;;;17.30;88.80;;;;;;5058895;28;20074;-64
2022/05/05 11:05:39;;;;;;;37.08;7.95;;;17.30;88.60;;;;;;5069558;28;20393;-67
2022/05/05 11:08:12;;;;;;;32.35;8.82;;;17.30;88.80;;;;;;5075527;28;20040;-63
2022/05/05 11:10:40;;;;;;;54.78;8.73;;;17.40;88.80;;;;;;5077709;28;20255;-62
2022/05/05 11:13:06;;;;;;;44.55;8.55;;;17.40;89.10;;;;;;5079975;28;20271;-63
2022/05/05 11:23:56;;;;;;;48.72;9.85;;;17.50;88.90;;;;;;5079398;28;20031;-63
2022/05/05 11:26:22;;;;;;;51.33;9.27;;;17.50;89.10;;;;;;5078614;28;20026;-64
2022/05/05 11:28:48;;;;;;;31.85;7.93;;;17.60;88.80;;;;;;5072446;28;20120;-61
2022/05/05 11:31:22;;;;;;;40.88;9.13;;;17.60;88.60;;;;;;5079748;28;20032;-61
2022/05/05 11:33:53;;;;;;;47.90;9.40;;;17.60;88.50;;;;;;5078653;28;20096;-61
2022/05/05 11:36:19;;;;;;;49.13;9.15;;;17.60;88.10;;;;;;5057626;28;20108;-63
2022/05/05 11:38:45;;;;;;;65.38;9.63;;;17.60;88.50;;;;;;5061942;28;20028;-62
2022/05/05 11:41:10;;;;;;;50.05;9.40;;;17.70;88.80;;;;;;5049754;28;20087;-63
2022/05/05 11:46:20;;;;;;;36.97;9.23;;;17.70;89.80;;;;;;5074737;28;20110;-60
2022/05/05 11:48:53;;;;;;;40.50;9.10;;;17.70;89.00;;;;;;5060414;28;20047;-61
2022/05/05 11:51:29;;;;;;;44.80;9.07;;;17.70;88.70;;;;;;5060785;28;20364;-61
2022/05/05 11:54:25;;;;;;;46.55;9.38;;;17.70;88.80;;;;;;5057386;28;20031;-61
2022/05/05 11:56:53;;;;;;;37.72;7.85;;;17.70;88.80;;;;;;5047026;28;20067;-63
2022/05/05 12:02:15;;;;;;;35.78;8.05;;;17.70;88.80;;;;;;5055507;28;20143;-61
2022/05/05 12:04:46;;;;;;;39.80;8.30;;;17.60;88.60;;;;;;5035643;28;20036;-61
2022/05/05 12:07:19;;;;;;;26.27;7.70;;;17.60;88.20;;;;;;5055788;28;20086;-61
2022/05/05 12:09:55;;;;;;;38.03;7.70;;;17.70;87.90;;;;;;5055799;28;20028;-62
2022/05/05 12:12:25;;;;;;;53.15;8.82;;;17.80;87.90;;;;;;5058817;28;20055;-61
2022/05/05 12:14:53;;;;;;;30.15;8.15;;;17.70;87.80;;;;;;5081704;28;20024;-62
2022/05/05 12:17:20;;;;;;;27.83;7.25;;;17.80;87.60;;;;;;5047447;28;20032;-63
2022/05/05 12:19:50;;;;;;;33.90;7.40;;;17.80;87.30;;;;;;5080177;28;20519;-62
2022/05/05 12:22:29;;;;;;;33.88;8.00;;;17.80;87.10;;;;;;5042424;28;20032;-61
2022/05/05 12:25:00;;;;;;;29.88;7.00;;;17.80;86.90;;;;;;5062707;28;20043;-62
2022/05/05 12:27:26;;;;;;;36.03;6.50;;;18.00;86.80;;;;;;5062383;28;20035;-62
2022/05/05 12:29:51;;;;;;;38.47;7.30;;;17.90;86.40;;;;;;5057709;28;20040;-61
2022/05/05 12:32:18;;;;;;;41.33;6.80;;;17.90;86.40;;;;;;5061894;28;20046;-63
2022/05/05 12:34:44;;;;;;;41.78;7.25;;;17.90;86.10;;;;;;5061512;28;20463;-61
2022/05/05 12:37:15;;;;;;;80.95;9.93;;;18.00;86.20;;;;;;5058148;28;20040;-61
2022/05/05 12:39:50;;;;;;;37.50;7.32;;;17.90;86.20;;;;;;5058258;28;20517;-62
2022/05/05 12:42:16;;;;;;;47.85;7.75;;;18.00;86.30;;;;;;5054895;28;20031;-63
2022/05/05 12:44:45;;;;;;;220.50;25.17;;;18.00;86.20;;;;;;5024741;28;20096;-62
2022/05/05 12:47:11;;;;;;;86.05;10.82;;;18.00;86.10;;;;;;5039570;28;20414;-61
2022/05/05 12:49:37;;;;;;;71.90;8.27;;;18.00;86.00;;;;;;5025181;28;20044;-62
2022/05/05 12:52:03;;;;;;;50.45;7.90;;;18.00;85.60;;;;;;5027952;28;20024;-62
2022/05/05 12:59:57;;;;;;;65.32;7.82;;;18.10;85.10;;;;;;5058010;28;20081;-61
2022/05/05 13:02:23;;;;;;;57.72;8.40;;;18.10;84.80;;;;;;5072569;28;20062;-61
2022/05/05 13:04:48;;;;;;;44.95;7.60;;;18.10;84.70;;;;;;5039103;28;20487;-61
2022/05/05 13:07:14;;;;;;;50.22;7.00;;;18.10;84.70;;;;;;5071434;28;20178;-61
2022/05/05 13:09:40;;;;;;;73.32;7.93;;;18.20;84.80;;;;;;5056102;28;20444;-62
2022/05/05 13:12:06;;;;;;;41.22;7.35;;;18.20;84.40;;;;;;5074897;28;20059;-63
2022/05/05 13:14:32;;;;;;;49.58;7.63;;;18.20;84.40;;;;;;5047547;28;20098;-62
2022/05/05 13:16:58;;;;;;;42.67;7.22;;;18.30;84.60;;;;;;5072194;28;20024;-62
2022/05/05 13:19:25;;;;;;;37.45;7.13;;;18.30;84.70;;;;;;5054295;28;20116;-63
2022/05/05 13:21:51;;;;;;;50.03;7.35;;;18.40;84.70;;;;;;5053404;28;20308;-61
2022/05/05 13:24:16;;;;;;;54.53;7.72;;;18.40;84.50;;;;;;5073270;28;20028;-62
2022/05/05 13:26:43;;;;;;;43.63;7.05;;;18.50;84.40;;;;;;5055519;28;20104;-62
2022/05/05 13:29:08;;;;;;;65.45;9.20;;;18.60;84.20;;;;;;5068634;28;20446;-61